<?xml version="1.0" encoding="UTF-8" standalone="no" ?><gpx xmlns="http://www.topografix.com/GPX/1/1" xmlns:gpxx="http://www.garmin.com/xmlschemas/GpxExtensions/v3" xmlns:wptx1="http://www.garmin.com/xmlschemas/WaypointExtension/v1" xmlns:gpxtpx="http://www.garmin.com/xmlschemas/TrackPointExtension/v1" creator="Dakota 20" version="1.1" xmlns:xsi="http://www.w3.org/2001/XMLSchema-instance" xsi:schemaLocation="http://www.topografix.com/GPX/1/1 http://www.topografix.com/GPX/1/1/gpx.xsd http://www.garmin.com/xmlschemas/GpxExtensions/v3 http://www8.garmin.com/xmlschemas/GpxExtensionsv3.xsd http://www.garmin.com/xmlschemas/WaypointExtension/v1 http://www8.garmin.com/xmlschemas/WaypointExtensionv1.xsd http://www.garmin.com/xmlschemas/TrackPointExtension/v1 http://www.garmin.com/xmlschemas/TrackPointExtensionv1.xsd"><metadata><link href="http://www.garmin.com"><text>Garmin International</text></link><time>2015-12-16T20:00:10Z</time></metadata><trk><name>Current Track: 16 DEC 2015 09:54</name><extensions><gpxx:TrackExtension><gpxx:DisplayColor>Cyan</gpxx:DisplayColor></gpxx:TrackExtension></extensions><trkseg><trkpt lat="51.8371604942" lon="-1.9545793533"><ele>148.18</ele><time>2015-12-16T09:54:21Z</time></trkpt><trkpt lat="51.8371559680" lon="-1.9545782637"><ele>149.62</ele><time>2015-12-16T09:54:29Z</time></trkpt><trkpt lat="51.8371648528" lon="-1.9546195865"><ele>148.66</ele><time>2015-12-16T09:54:44Z</time></trkpt><trkpt lat="51.8371355161" lon="-1.9546126295"><ele>148.18</ele><time>2015-12-16T09:54:58Z</time></trkpt><trkpt lat="51.8369564787" lon="-1.9545938540"><ele>149.14</ele><time>2015-12-16T09:55:14Z</time></trkpt><trkpt lat="51.8368892558" lon="-1.9544976298"><ele>150.10</ele><time>2015-12-16T09:55:28Z</time></trkpt><trkpt lat="51.8368595839" lon="-1.9544436503"><ele>151.06</ele><time>2015-12-16T09:55:32Z</time></trkpt><trkpt lat="51.8368061073" lon="-1.9543988071"><ele>152.99</ele><time>2015-12-16T09:55:44Z</time></trkpt><trkpt lat="51.8367594201" lon="-1.9544628449"><ele>154.91</ele><time>2015-12-16T09:55:58Z</time></trkpt><trkpt lat="51.8366522156" lon="-1.9545099512"><ele>155.39</ele><time>2015-12-16T09:56:06Z</time></trkpt><trkpt lat="51.8365119025" lon="-1.9545330014"><ele>156.83</ele><time>2015-12-16T09:56:20Z</time></trkpt><trkpt lat="51.8364219647" lon="-1.9545202609"><ele>156.83</ele><time>2015-12-16T09:56:38Z</time></trkpt><trkpt lat="51.8363702483" lon="-1.9545364380"><ele>156.83</ele><time>2015-12-16T09:57:03Z</time></trkpt><trkpt lat="51.8363175262" lon="-1.9545660261"><ele>153.47</ele><time>2015-12-16T09:57:20Z</time></trkpt><trkpt lat="51.8360974174" lon="-1.9545972068"><ele>152.03</ele><time>2015-12-16T09:57:39Z</time></trkpt><trkpt lat="51.8360618781" lon="-1.9545683730"><ele>149.62</ele><time>2015-12-16T09:57:55Z</time></trkpt><trkpt lat="51.8359847646" lon="-1.9545003958"><ele>148.18</ele><time>2015-12-16T09:58:12Z</time></trkpt><trkpt lat="51.8359471299" lon="-1.9544439856"><ele>147.22</ele><time>2015-12-16T09:58:19Z</time></trkpt><trkpt lat="51.8358329684" lon="-1.9543660339"><ele>147.22</ele><time>2015-12-16T09:58:39Z</time></trkpt><trkpt lat="51.8357877061" lon="-1.9543210231"><ele>146.26</ele><time>2015-12-16T09:58:59Z</time></trkpt><trkpt lat="51.8356838543" lon="-1.9540944602"><ele>145.78</ele><time>2015-12-16T09:59:18Z</time></trkpt><trkpt lat="51.8355029728" lon="-1.9537983276"><ele>146.26</ele><time>2015-12-16T09:59:37Z</time></trkpt><trkpt lat="51.8354210816" lon="-1.9536927156"><ele>146.26</ele><time>2015-12-16T09:59:58Z</time></trkpt><trkpt lat="51.8354189023" lon="-1.9535202999"><ele>146.26</ele><time>2015-12-16T10:00:15Z</time></trkpt><trkpt lat="51.8353344966" lon="-1.9533721078"><ele>145.78</ele><time>2015-12-16T10:00:24Z</time></trkpt><trkpt lat="51.8351110350" lon="-1.9531372469"><ele>145.30</ele><time>2015-12-16T10:00:46Z</time></trkpt><trkpt lat="51.8350599892" lon="-1.9530639891"><ele>144.34</ele><time>2015-12-16T10:01:06Z</time></trkpt><trkpt lat="51.8350467458" lon="-1.9529608916"><ele>142.41</ele><time>2015-12-16T10:01:27Z</time></trkpt><trkpt lat="51.8348807842" lon="-1.9528283738"><ele>142.41</ele><time>2015-12-16T10:01:47Z</time></trkpt><trkpt lat="51.8346815463" lon="-1.9527213369"><ele>141.45</ele><time>2015-12-16T10:02:08Z</time></trkpt><trkpt lat="51.8346227054" lon="-1.9526256155"><ele>142.41</ele><time>2015-12-16T10:02:29Z</time></trkpt><trkpt lat="51.8346200231" lon="-1.9526393618"><ele>140.49</ele><time>2015-12-16T10:02:51Z</time></trkpt><trkpt lat="51.8345926143" lon="-1.9525441434"><ele>140.97</ele><time>2015-12-16T10:03:07Z</time></trkpt><trkpt lat="51.8345756829" lon="-1.9524942711"><ele>137.61</ele><time>2015-12-16T10:03:15Z</time></trkpt><trkpt lat="51.8345755991" lon="-1.9524939358"><ele>137.61</ele><time>2015-12-16T10:03:16Z</time></trkpt><trkpt lat="51.8345755152" lon="-1.9524939358"><ele>141.45</ele><time>2015-12-16T10:03:17Z</time></trkpt><trkpt lat="51.8345755152" lon="-1.9524938520"><ele>140.49</ele><time>2015-12-16T10:03:18Z</time></trkpt><trkpt lat="51.8345798738" lon="-1.9525225181"><ele>140.97</ele><time>2015-12-16T10:03:29Z</time></trkpt><trkpt lat="51.8345807958" lon="-1.9525286369"><ele>141.45</ele><time>2015-12-16T10:03:31Z</time></trkpt><trkpt lat="51.8345812988" lon="-1.9525321573"><ele>139.53</ele><time>2015-12-16T10:03:32Z</time></trkpt><trkpt lat="51.8345818017" lon="-1.9525353424"><ele>140.97</ele><time>2015-12-16T10:03:33Z</time></trkpt><trkpt lat="51.8345839810" lon="-1.9525504299"><ele>140.49</ele><time>2015-12-16T10:03:38Z</time></trkpt><trkpt lat="51.8345860764" lon="-1.9525642600"><ele>151.54</ele><time>2015-12-16T10:03:42Z</time></trkpt><trkpt lat="51.8345865794" lon="-1.9525674451"><ele>140.97</ele><time>2015-12-16T10:03:43Z</time></trkpt><trkpt lat="51.8344274908" lon="-1.9523559697"><ele>140.01</ele><time>2015-12-16T10:04:02Z</time></trkpt><trkpt lat="51.8343351223" lon="-1.9522944465"><ele>140.01</ele><time>2015-12-16T10:04:17Z</time></trkpt><trkpt lat="51.8342579249" lon="-1.9523152336"><ele>140.97</ele><time>2015-12-16T10:04:37Z</time></trkpt><trkpt lat="51.8341352139" lon="-1.9522856455"><ele>140.97</ele><time>2015-12-16T10:04:56Z</time></trkpt><trkpt lat="51.8339798134" lon="-1.9521491043"><ele>140.49</ele><time>2015-12-16T10:05:14Z</time></trkpt><trkpt lat="51.8339254986" lon="-1.9521409739"><ele>140.01</ele><time>2015-12-16T10:05:32Z</time></trkpt><trkpt lat="51.8338582758" lon="-1.9520459231"><ele>140.49</ele><time>2015-12-16T10:05:47Z</time></trkpt><trkpt lat="51.8338000216" lon="-1.9518605992"><ele>141.93</ele><time>2015-12-16T10:06:04Z</time></trkpt><trkpt lat="51.8337019533" lon="-1.9516749401"><ele>142.89</ele><time>2015-12-16T10:06:25Z</time></trkpt><trkpt lat="51.8335712794" lon="-1.9516298454"><ele>142.41</ele><time>2015-12-16T10:06:46Z</time></trkpt><trkpt lat="51.8333743047" lon="-1.9515205454"><ele>141.93</ele><time>2015-12-16T10:07:04Z</time></trkpt><trkpt lat="51.8331846222" lon="-1.9514101557"><ele>140.97</ele><time>2015-12-16T10:07:20Z</time></trkpt><trkpt lat="51.8330935109" lon="-1.9513767958"><ele>142.89</ele><time>2015-12-16T10:07:29Z</time></trkpt><trkpt lat="51.8330126256" lon="-1.9513234030"><ele>140.97</ele><time>2015-12-16T10:07:42Z</time></trkpt><trkpt lat="51.8329278845" lon="-1.9512969162"><ele>141.45</ele><time>2015-12-16T10:07:49Z</time></trkpt><trkpt lat="51.8327892479" lon="-1.9512389135"><ele>142.41</ele><time>2015-12-16T10:08:00Z</time></trkpt><trkpt lat="51.8326459173" lon="-1.9510840159"><ele>142.41</ele><time>2015-12-16T10:08:16Z</time></trkpt><trkpt lat="51.8324533012" lon="-1.9509121869"><ele>142.89</ele><time>2015-12-16T10:08:36Z</time></trkpt><trkpt lat="51.8322701566" lon="-1.9507862907"><ele>142.89</ele><time>2015-12-16T10:08:54Z</time></trkpt><trkpt lat="51.8321375549" lon="-1.9506259449"><ele>142.89</ele><time>2015-12-16T10:09:10Z</time></trkpt><trkpt lat="51.8320040312" lon="-1.9505179860"><ele>142.89</ele><time>2015-12-16T10:09:26Z</time></trkpt><trkpt lat="51.8319022749" lon="-1.9503839593"><ele>142.41</ele><time>2015-12-16T10:09:40Z</time></trkpt><trkpt lat="51.8317706790" lon="-1.9501824584"><ele>142.89</ele><time>2015-12-16T10:09:57Z</time></trkpt><trkpt lat="51.8316151109" lon="-1.9500022475"><ele>143.37</ele><time>2015-12-16T10:10:15Z</time></trkpt><trkpt lat="51.8314830959" lon="-1.9498771057"><ele>144.34</ele><time>2015-12-16T10:10:34Z</time></trkpt><trkpt lat="51.8313505780" lon="-1.9496216252"><ele>145.30</ele><time>2015-12-16T10:10:49Z</time></trkpt><trkpt lat="51.8312082533" lon="-1.9494104851"><ele>145.78</ele><time>2015-12-16T10:11:05Z</time></trkpt><trkpt lat="51.8311092630" lon="-1.9492438529"><ele>145.78</ele><time>2015-12-16T10:11:23Z</time></trkpt><trkpt lat="51.8310603127" lon="-1.9491618779"><ele>145.78</ele><time>2015-12-16T10:11:44Z</time></trkpt><trkpt lat="51.8309273757" lon="-1.9490484707"><ele>144.82</ele><time>2015-12-16T10:11:59Z</time></trkpt><trkpt lat="51.8307950255" lon="-1.9488804974"><ele>143.37</ele><time>2015-12-16T10:12:15Z</time></trkpt><trkpt lat="51.8308070116" lon="-1.9486908149"><ele>144.34</ele><time>2015-12-16T10:12:29Z</time></trkpt><trkpt lat="51.8309386075" lon="-1.9484636653"><ele>147.22</ele><time>2015-12-16T10:12:46Z</time></trkpt><trkpt lat="51.8309438042" lon="-1.9484162237"><ele>147.70</ele><time>2015-12-16T10:12:48Z</time></trkpt><trkpt lat="51.8308549561" lon="-1.9481967855"><ele>147.22</ele><time>2015-12-16T10:13:05Z</time></trkpt><trkpt lat="51.8307389505" lon="-1.9479938596"><ele>145.30</ele><time>2015-12-16T10:13:20Z</time></trkpt><trkpt lat="51.8306941912" lon="-1.9478632696"><ele>143.37</ele><time>2015-12-16T10:13:38Z</time></trkpt><trkpt lat="51.8306826241" lon="-1.9478273951"><ele>142.89</ele><time>2015-12-16T10:14:03Z</time></trkpt><trkpt lat="51.8306775112" lon="-1.9478483498"><ele>142.89</ele><time>2015-12-16T10:14:28Z</time></trkpt><trkpt lat="51.8306678720" lon="-1.9477855694"><ele>143.85</ele><time>2015-12-16T10:14:52Z</time></trkpt><trkpt lat="51.8307640962" lon="-1.9476659596"><ele>144.82</ele><time>2015-12-16T10:15:08Z</time></trkpt><trkpt lat="51.8308241945" lon="-1.9476649538"><ele>144.82</ele><time>2015-12-16T10:15:26Z</time></trkpt><trkpt lat="51.8308355939" lon="-1.9476331864"><ele>144.82</ele><time>2015-12-16T10:15:47Z</time></trkpt><trkpt lat="51.8309346680" lon="-1.9474421628"><ele>145.30</ele><time>2015-12-16T10:16:04Z</time></trkpt><trkpt lat="51.8310530204" lon="-1.9472443499"><ele>146.26</ele><time>2015-12-16T10:16:18Z</time></trkpt><trkpt lat="51.8312423676" lon="-1.9471260812"><ele>146.74</ele><time>2015-12-16T10:16:32Z</time></trkpt><trkpt lat="51.8313112669" lon="-1.9468982611"><ele>146.26</ele><time>2015-12-16T10:16:48Z</time></trkpt><trkpt lat="51.8314142805" lon="-1.9466539286"><ele>144.82</ele><time>2015-12-16T10:17:04Z</time></trkpt><trkpt lat="51.8314184714" lon="-1.9466340635"><ele>145.30</ele><time>2015-12-16T10:17:05Z</time></trkpt><trkpt lat="51.8315217365" lon="-1.9464231748"><ele>146.26</ele><time>2015-12-16T10:17:23Z</time></trkpt><trkpt lat="51.8315701000" lon="-1.9462285470"><ele>145.78</ele><time>2015-12-16T10:17:38Z</time></trkpt><trkpt lat="51.8316845130" lon="-1.9460006431"><ele>146.26</ele><time>2015-12-16T10:17:55Z</time></trkpt><trkpt lat="51.8317694217" lon="-1.9458253775"><ele>147.70</ele><time>2015-12-16T10:18:08Z</time></trkpt><trkpt lat="51.8318546657" lon="-1.9456146564"><ele>146.26</ele><time>2015-12-16T10:18:25Z</time></trkpt><trkpt lat="51.8319224752" lon="-1.9455330167"><ele>145.30</ele><time>2015-12-16T10:18:39Z</time></trkpt><trkpt lat="51.8319501355" lon="-1.9453792926"><ele>145.30</ele><time>2015-12-16T10:18:58Z</time></trkpt><trkpt lat="51.8319705874" lon="-1.9453769457"><ele>144.82</ele><time>2015-12-16T10:19:23Z</time></trkpt><trkpt lat="51.8319742754" lon="-1.9453201164"><ele>144.82</ele><time>2015-12-16T10:19:47Z</time></trkpt><trkpt lat="51.8319758680" lon="-1.9452367164"><ele>144.82</ele><time>2015-12-16T10:20:10Z</time></trkpt><trkpt lat="51.8320076354" lon="-1.9449395780"><ele>145.30</ele><time>2015-12-16T10:20:30Z</time></trkpt><trkpt lat="51.8320632074" lon="-1.9447048847"><ele>145.30</ele><time>2015-12-16T10:20:46Z</time></trkpt><trkpt lat="51.8321117386" lon="-1.9445844367"><ele>145.78</ele><time>2015-12-16T10:21:02Z</time></trkpt><trkpt lat="51.8321650475" lon="-1.9443893060"><ele>145.78</ele><time>2015-12-16T10:21:19Z</time></trkpt><trkpt lat="51.8322025146" lon="-1.9441049919"><ele>145.30</ele><time>2015-12-16T10:21:36Z</time></trkpt><trkpt lat="51.8322300073" lon="-1.9439125434"><ele>144.34</ele><time>2015-12-16T10:21:52Z</time></trkpt><trkpt lat="51.8322550692" lon="-1.9435786922"><ele>145.30</ele><time>2015-12-16T10:22:11Z</time></trkpt><trkpt lat="51.8322559912" lon="-1.9433742575"><ele>145.30</ele><time>2015-12-16T10:22:26Z</time></trkpt><trkpt lat="51.8322460167" lon="-1.9430383109"><ele>144.82</ele><time>2015-12-16T10:22:42Z</time></trkpt><trkpt lat="51.8322531413" lon="-1.9428957347"><ele>144.82</ele><time>2015-12-16T10:23:00Z</time></trkpt><trkpt lat="51.8322489504" lon="-1.9427436031"><ele>144.34</ele><time>2015-12-16T10:23:19Z</time></trkpt><trkpt lat="51.8322438374" lon="-1.9426739495"><ele>142.89</ele><time>2015-12-16T10:23:37Z</time></trkpt><trkpt lat="51.8322105613" lon="-1.9421950076"><ele>142.41</ele><time>2015-12-16T10:23:55Z</time></trkpt><trkpt lat="51.8321926240" lon="-1.9420725480"><ele>142.41</ele><time>2015-12-16T10:24:10Z</time></trkpt><trkpt lat="51.8321725074" lon="-1.9419132918"><ele>140.97</ele><time>2015-12-16T10:24:30Z</time></trkpt><trkpt lat="51.8321274128" lon="-1.9416492619"><ele>141.45</ele><time>2015-12-16T10:24:49Z</time></trkpt><trkpt lat="51.8321264908" lon="-1.9413850643"><ele>141.93</ele><time>2015-12-16T10:25:06Z</time></trkpt><trkpt lat="51.8320850004" lon="-1.9411754329"><ele>142.41</ele><time>2015-12-16T10:25:23Z</time></trkpt><trkpt lat="51.8320803065" lon="-1.9408280030"><ele>142.41</ele><time>2015-12-16T10:25:41Z</time></trkpt><trkpt lat="51.8320259918" lon="-1.9406224787"><ele>141.93</ele><time>2015-12-16T10:26:00Z</time></trkpt><trkpt lat="51.8320212141" lon="-1.9405618776"><ele>142.41</ele><time>2015-12-16T10:26:17Z</time></trkpt><trkpt lat="51.8320053723" lon="-1.9403924793"><ele>142.89</ele><time>2015-12-16T10:26:29Z</time></trkpt><trkpt lat="51.8319908716" lon="-1.9402471371"><ele>143.37</ele><time>2015-12-16T10:26:45Z</time></trkpt><trkpt lat="51.8319835793" lon="-1.9401375856"><ele>143.85</ele><time>2015-12-16T10:26:58Z</time></trkpt><trkpt lat="51.8319455255" lon="-1.9399488252"><ele>146.26</ele><time>2015-12-16T10:27:13Z</time></trkpt><trkpt lat="51.8319571763" lon="-1.9398717955"><ele>146.74</ele><time>2015-12-16T10:27:31Z</time></trkpt><trkpt lat="51.8319556676" lon="-1.9397895690"><ele>147.70</ele><time>2015-12-16T10:27:46Z</time></trkpt><trkpt lat="51.8319485430" lon="-1.9397325721"><ele>148.18</ele><time>2015-12-16T10:28:08Z</time></trkpt><trkpt lat="51.8319316953" lon="-1.9396388624"><ele>148.18</ele><time>2015-12-16T10:28:27Z</time></trkpt><trkpt lat="51.8319179490" lon="-1.9394091144"><ele>149.62</ele><time>2015-12-16T10:28:46Z</time></trkpt><trkpt lat="51.8319037836" lon="-1.9392831344"><ele>149.62</ele><time>2015-12-16T10:29:03Z</time></trkpt><trkpt lat="51.8318886962" lon="-1.9391901791"><ele>150.58</ele><time>2015-12-16T10:29:21Z</time></trkpt><trkpt lat="51.8318665680" lon="-1.9391350262"><ele>148.66</ele><time>2015-12-16T10:29:25Z</time></trkpt><trkpt lat="51.8318213895" lon="-1.9389983173"><ele>148.18</ele><time>2015-12-16T10:29:41Z</time></trkpt><trkpt lat="51.8318098225" lon="-1.9389617722"><ele>149.14</ele><time>2015-12-16T10:30:01Z</time></trkpt><trkpt lat="51.8317668233" lon="-1.9387321919"><ele>149.62</ele><time>2015-12-16T10:30:17Z</time></trkpt><trkpt lat="51.8317364808" lon="-1.9385142624"><ele>149.14</ele><time>2015-12-16T10:30:33Z</time></trkpt><trkpt lat="51.8317741994" lon="-1.9383990113"><ele>151.06</ele><time>2015-12-16T10:30:46Z</time></trkpt><trkpt lat="51.8317736126" lon="-1.9383945689"><ele>151.06</ele><time>2015-12-16T10:31:11Z</time></trkpt><trkpt lat="51.8317791447" lon="-1.9383912999"><ele>151.06</ele><time>2015-12-16T10:31:46Z</time></trkpt><trkpt lat="51.8318032008" lon="-1.9383221492"><ele>151.54</ele><time>2015-12-16T10:32:11Z</time></trkpt><trkpt lat="51.8318311125" lon="-1.9380452111"><ele>151.54</ele><time>2015-12-16T10:32:26Z</time></trkpt><trkpt lat="51.8318604492" lon="-1.9377810135"><ele>152.03</ele><time>2015-12-16T10:32:40Z</time></trkpt><trkpt lat="51.8318992574" lon="-1.9375583902"><ele>152.03</ele><time>2015-12-16T10:32:55Z</time></trkpt><trkpt lat="51.8319591042" lon="-1.9372820389"><ele>152.51</ele><time>2015-12-16T10:33:09Z</time></trkpt><trkpt lat="51.8320545740" lon="-1.9370436575"><ele>152.03</ele><time>2015-12-16T10:33:26Z</time></trkpt><trkpt lat="51.8321321066" lon="-1.9367452618"><ele>151.54</ele><time>2015-12-16T10:33:43Z</time></trkpt><trkpt lat="51.8322437536" lon="-1.9364704192"><ele>150.58</ele><time>2015-12-16T10:34:00Z</time></trkpt><trkpt lat="51.8323385529" lon="-1.9361814950"><ele>149.62</ele><time>2015-12-16T10:34:17Z</time></trkpt><trkpt lat="51.8324345257" lon="-1.9359663315"><ele>149.62</ele><time>2015-12-16T10:34:32Z</time></trkpt><trkpt lat="51.8325730786" lon="-1.9357004575"><ele>148.66</ele><time>2015-12-16T10:34:52Z</time></trkpt><trkpt lat="51.8326777685" lon="-1.9355115294"><ele>147.70</ele><time>2015-12-16T10:35:07Z</time></trkpt><trkpt lat="51.8327570613" lon="-1.9353458192"><ele>146.26</ele><time>2015-12-16T10:35:23Z</time></trkpt><trkpt lat="51.8328587338" lon="-1.9351290632"><ele>144.34</ele><time>2015-12-16T10:35:41Z</time></trkpt><trkpt lat="51.8330367655" lon="-1.9348948728"><ele>143.37</ele><time>2015-12-16T10:35:59Z</time></trkpt><trkpt lat="51.8330068421" lon="-1.9347481895"><ele>142.89</ele><time>2015-12-16T10:36:15Z</time></trkpt><trkpt lat="51.8328661937" lon="-1.9345838204"><ele>140.49</ele><time>2015-12-16T10:36:28Z</time></trkpt><trkpt lat="51.8328571413" lon="-1.9345648773"><ele>140.49</ele><time>2015-12-16T10:36:29Z</time></trkpt><trkpt lat="51.8327777646" lon="-1.9344289228"><ele>139.05</ele><time>2015-12-16T10:36:36Z</time></trkpt><trkpt lat="51.8326694705" lon="-1.9342481252"><ele>137.13</ele><time>2015-12-16T10:36:50Z</time></trkpt><trkpt lat="51.8325685523" lon="-1.9340795651"><ele>136.16</ele><time>2015-12-16T10:37:04Z</time></trkpt><trkpt lat="51.8324983958" lon="-1.9338998571"><ele>135.20</ele><time>2015-12-16T10:37:16Z</time></trkpt><trkpt lat="51.8324497808" lon="-1.9337413553"><ele>134.72</ele><time>2015-12-16T10:37:34Z</time></trkpt><trkpt lat="51.8324479368" lon="-1.9337226637"><ele>134.24</ele><time>2015-12-16T10:38:01Z</time></trkpt><trkpt lat="51.8324358668" lon="-1.9336891361"><ele>134.24</ele><time>2015-12-16T10:38:27Z</time></trkpt><trkpt lat="51.8324321788" lon="-1.9336758088"><ele>135.20</ele><time>2015-12-16T10:38:44Z</time></trkpt><trkpt lat="51.8324384652" lon="-1.9336549379"><ele>134.72</ele><time>2015-12-16T10:39:06Z</time></trkpt><trkpt lat="51.8324335199" lon="-1.9335226715"><ele>133.28</ele><time>2015-12-16T10:39:25Z</time></trkpt><trkpt lat="51.8323278241" lon="-1.9333571289"><ele>134.24</ele><time>2015-12-16T10:39:41Z</time></trkpt><trkpt lat="51.8322423287" lon="-1.9331390318"><ele>133.76</ele><time>2015-12-16T10:39:57Z</time></trkpt><trkpt lat="51.8321763631" lon="-1.9329641014"><ele>133.28</ele><time>2015-12-16T10:40:14Z</time></trkpt><trkpt lat="51.8321067095" lon="-1.9328412227"><ele>133.28</ele><time>2015-12-16T10:40:27Z</time></trkpt><trkpt lat="51.8320137542" lon="-1.9327135663"><ele>134.24</ele><time>2015-12-16T10:40:43Z</time></trkpt><trkpt lat="51.8319599424" lon="-1.9326771051"><ele>134.24</ele><time>2015-12-16T10:40:56Z</time></trkpt><trkpt lat="51.8319032807" lon="-1.9325584173"><ele>133.76</ele><time>2015-12-16T10:41:14Z</time></trkpt><trkpt lat="51.8318544142" lon="-1.9324197806"><ele>133.76</ele><time>2015-12-16T10:41:28Z</time></trkpt><trkpt lat="51.8318346329" lon="-1.9323663879"><ele>133.28</ele><time>2015-12-16T10:41:39Z</time></trkpt><trkpt lat="51.8318359740" lon="-1.9323440921"><ele>133.76</ele><time>2015-12-16T10:42:05Z</time></trkpt><trkpt lat="51.8318212219" lon="-1.9323263224"><ele>133.76</ele><time>2015-12-16T10:42:28Z</time></trkpt><trkpt lat="51.8317873590" lon="-1.9323507138"><ele>133.76</ele><time>2015-12-16T10:42:42Z</time></trkpt><trkpt lat="51.8317868561" lon="-1.9323485345"><ele>133.76</ele><time>2015-12-16T10:43:07Z</time></trkpt><trkpt lat="51.8317942321" lon="-1.9323297590"><ele>133.28</ele><time>2015-12-16T10:43:29Z</time></trkpt><trkpt lat="51.8319025263" lon="-1.9321335386"><ele>134.72</ele><time>2015-12-16T10:43:45Z</time></trkpt><trkpt lat="51.8319151830" lon="-1.9319286849"><ele>136.16</ele><time>2015-12-16T10:44:01Z</time></trkpt><trkpt lat="51.8319555838" lon="-1.9317628909"><ele>136.64</ele><time>2015-12-16T10:44:14Z</time></trkpt><trkpt lat="51.8320532329" lon="-1.9315605517"><ele>137.61</ele><time>2015-12-16T10:44:31Z</time></trkpt><trkpt lat="51.8321155105" lon="-1.9314080849"><ele>137.61</ele><time>2015-12-16T10:44:45Z</time></trkpt><trkpt lat="51.8321240600" lon="-1.9314013794"><ele>138.09</ele><time>2015-12-16T10:44:46Z</time></trkpt><trkpt lat="51.8321575876" lon="-1.9312436320"><ele>138.09</ele><time>2015-12-16T10:45:02Z</time></trkpt><trkpt lat="51.8322752696" lon="-1.9310699590"><ele>138.09</ele><time>2015-12-16T10:45:19Z</time></trkpt><trkpt lat="51.8323523831" lon="-1.9308913406"><ele>138.09</ele><time>2015-12-16T10:45:32Z</time></trkpt><trkpt lat="51.8324483559" lon="-1.9307402149"><ele>137.61</ele><time>2015-12-16T10:45:48Z</time></trkpt><trkpt lat="51.8324651197" lon="-1.9306800328"><ele>138.09</ele><time>2015-12-16T10:46:03Z</time></trkpt><trkpt lat="51.8324922770" lon="-1.9306141511"><ele>138.09</ele><time>2015-12-16T10:46:19Z</time></trkpt><trkpt lat="51.8326333445" lon="-1.9304590859"><ele>137.13</ele><time>2015-12-16T10:46:38Z</time></trkpt><trkpt lat="51.8327772617" lon="-1.9302885979"><ele>135.68</ele><time>2015-12-16T10:46:56Z</time></trkpt><trkpt lat="51.8329359312" lon="-1.9301077165"><ele>136.64</ele><time>2015-12-16T10:47:15Z</time></trkpt><trkpt lat="51.8330075126" lon="-1.9299420062"><ele>135.68</ele><time>2015-12-16T10:47:31Z</time></trkpt><trkpt lat="51.8330058362" lon="-1.9298685808"><ele>135.68</ele><time>2015-12-16T10:47:45Z</time></trkpt><trkpt lat="51.8329853844" lon="-1.9298570137"><ele>135.20</ele><time>2015-12-16T10:48:04Z</time></trkpt><trkpt lat="51.8329707999" lon="-1.9298334606"><ele>135.68</ele><time>2015-12-16T10:48:31Z</time></trkpt><trkpt lat="51.8329050019" lon="-1.9297534134"><ele>136.64</ele><time>2015-12-16T10:48:45Z</time></trkpt><trkpt lat="51.8328680377" lon="-1.9297129288"><ele>136.64</ele><time>2015-12-16T10:48:49Z</time></trkpt><trkpt lat="51.8327346817" lon="-1.9296359830"><ele>138.57</ele><time>2015-12-16T10:49:03Z</time></trkpt><trkpt lat="51.8327031657" lon="-1.9296139386"><ele>138.57</ele><time>2015-12-16T10:49:18Z</time></trkpt><trkpt lat="51.8326092046" lon="-1.9296047185"><ele>139.05</ele><time>2015-12-16T10:49:29Z</time></trkpt><trkpt lat="51.8325330131" lon="-1.9295980968"><ele>139.05</ele><time>2015-12-16T10:49:38Z</time></trkpt><trkpt lat="51.8323649559" lon="-1.9295480568"><ele>140.49</ele><time>2015-12-16T10:49:55Z</time></trkpt><trkpt lat="51.8323463481" lon="-1.9295598753"><ele>140.01</ele><time>2015-12-16T10:50:04Z</time></trkpt><trkpt lat="51.8322047777" lon="-1.9295645691"><ele>140.01</ele><time>2015-12-16T10:50:15Z</time></trkpt><trkpt lat="51.8320326135" lon="-1.9295437820"><ele>140.49</ele><time>2015-12-16T10:50:32Z</time></trkpt><trkpt lat="51.8319876026" lon="-1.9295351487"><ele>139.53</ele><time>2015-12-16T10:50:47Z</time></trkpt><trkpt lat="51.8318720162" lon="-1.9295400102"><ele>140.01</ele><time>2015-12-16T10:51:01Z</time></trkpt><trkpt lat="51.8317693379" lon="-1.9295237493"><ele>139.05</ele><time>2015-12-16T10:51:17Z</time></trkpt><trkpt lat="51.8316843454" lon="-1.9295060635"><ele>138.57</ele><time>2015-12-16T10:51:31Z</time></trkpt><trkpt lat="51.8315824214" lon="-1.9295121823"><ele>138.57</ele><time>2015-12-16T10:51:46Z</time></trkpt><trkpt lat="51.8315711897" lon="-1.9295026269"><ele>138.57</ele><time>2015-12-16T10:52:03Z</time></trkpt><trkpt lat="51.8315763865" lon="-1.9295085780"><ele>135.68</ele><time>2015-12-16T10:52:14Z</time></trkpt><trkpt lat="51.8315766379" lon="-1.9295105059"><ele>140.01</ele><time>2015-12-16T10:52:15Z</time></trkpt><trkpt lat="51.8315748777" lon="-1.9295150321"><ele>139.05</ele><time>2015-12-16T10:52:21Z</time></trkpt><trkpt lat="51.8315886240" lon="-1.9294952508"><ele>138.57</ele><time>2015-12-16T10:52:35Z</time></trkpt><trkpt lat="51.8315845169" lon="-1.9295022916"><ele>138.57</ele><time>2015-12-16T10:52:55Z</time></trkpt><trkpt lat="51.8315890431" lon="-1.9294988550"><ele>139.05</ele><time>2015-12-16T10:53:20Z</time></trkpt><trkpt lat="51.8315821700" lon="-1.9295095000"><ele>139.53</ele><time>2015-12-16T10:53:39Z</time></trkpt><trkpt lat="51.8315866962" lon="-1.9294767268"><ele>138.09</ele><time>2015-12-16T10:53:57Z</time></trkpt><trkpt lat="51.8316241633" lon="-1.9294148684"><ele>138.09</ele><time>2015-12-16T10:54:10Z</time></trkpt><trkpt lat="51.8316315394" lon="-1.9293867890"><ele>138.09</ele><time>2015-12-16T10:54:26Z</time></trkpt><trkpt lat="51.8315908033" lon="-1.9295029622"><ele>138.57</ele><time>2015-12-16T10:54:39Z</time></trkpt><trkpt lat="51.8316084892" lon="-1.9295266829"><ele>138.57</ele><time>2015-12-16T10:55:01Z</time></trkpt><trkpt lat="51.8316166196" lon="-1.9295119308"><ele>139.05</ele><time>2015-12-16T10:55:19Z</time></trkpt><trkpt lat="51.8316366524" lon="-1.9294997770"><ele>138.57</ele><time>2015-12-16T10:55:35Z</time></trkpt><trkpt lat="51.8316372391" lon="-1.9295007829"><ele>139.05</ele><time>2015-12-16T10:55:59Z</time></trkpt><trkpt lat="51.8316223193" lon="-1.9294994418"><ele>138.57</ele><time>2015-12-16T10:56:12Z</time></trkpt><trkpt lat="51.8316208944" lon="-1.9294980168"><ele>139.53</ele><time>2015-12-16T10:56:38Z</time></trkpt><trkpt lat="51.8315642327" lon="-1.9295182172"><ele>138.57</ele><time>2015-12-16T10:56:55Z</time></trkpt><trkpt lat="51.8315211497" lon="-1.9295205642"><ele>138.57</ele><time>2015-12-16T10:57:00Z</time></trkpt><trkpt lat="51.8313941639" lon="-1.9295821711"><ele>139.05</ele><time>2015-12-16T10:57:14Z</time></trkpt><trkpt lat="51.8312977720" lon="-1.9296581950"><ele>139.53</ele><time>2015-12-16T10:57:28Z</time></trkpt><trkpt lat="51.8312919047" lon="-1.9296678342"><ele>140.49</ele><time>2015-12-16T10:57:50Z</time></trkpt><trkpt lat="51.8312883843" lon="-1.9296683371"><ele>140.49</ele><time>2015-12-16T10:58:24Z</time></trkpt><trkpt lat="51.8312916532" lon="-1.9296606258"><ele>140.49</ele><time>2015-12-16T10:58:50Z</time></trkpt><trkpt lat="51.8312851153" lon="-1.9296085741"><ele>139.53</ele><time>2015-12-16T10:59:01Z</time></trkpt><trkpt lat="51.8312817626" lon="-1.9295913912"><ele>139.53</ele><time>2015-12-16T10:59:25Z</time></trkpt><trkpt lat="51.8312943354" lon="-1.9296068139"><ele>139.53</ele><time>2015-12-16T10:59:44Z</time></trkpt><trkpt lat="51.8312956765" lon="-1.9295483083"><ele>139.53</ele><time>2015-12-16T10:59:56Z</time></trkpt><trkpt lat="51.8312889710" lon="-1.9295526668"><ele>140.49</ele><time>2015-12-16T11:00:17Z</time></trkpt><trkpt lat="51.8312945031" lon="-1.9295513257"><ele>139.53</ele><time>2015-12-16T11:00:38Z</time></trkpt><trkpt lat="51.8313087523" lon="-1.9295897987"><ele>138.57</ele><time>2015-12-16T11:00:54Z</time></trkpt><trkpt lat="51.8313147873" lon="-1.9296244159"><ele>140.49</ele><time>2015-12-16T11:01:03Z</time></trkpt><trkpt lat="51.8313029688" lon="-1.9296765514"><ele>141.45</ele><time>2015-12-16T11:01:21Z</time></trkpt><trkpt lat="51.8312649988" lon="-1.9296917226"><ele>141.45</ele><time>2015-12-16T11:01:37Z</time></trkpt><trkpt lat="51.8312802538" lon="-1.9297050498"><ele>141.45</ele><time>2015-12-16T11:01:55Z</time></trkpt><trkpt lat="51.8312819302" lon="-1.9297146052"><ele>141.45</ele><time>2015-12-16T11:02:19Z</time></trkpt><trkpt lat="51.8312807567" lon="-1.9297120068"><ele>141.45</ele><time>2015-12-16T11:02:41Z</time></trkpt><trkpt lat="51.8312815111" lon="-1.9297233224"><ele>140.49</ele><time>2015-12-16T11:03:06Z</time></trkpt><trkpt lat="51.8312766496" lon="-1.9297250826"><ele>140.97</ele><time>2015-12-16T11:03:29Z</time></trkpt><trkpt lat="51.8312728778" lon="-1.9297292735"><ele>140.97</ele><time>2015-12-16T11:03:49Z</time></trkpt><trkpt lat="51.8312740512" lon="-1.9297248311"><ele>141.93</ele><time>2015-12-16T11:04:10Z</time></trkpt><trkpt lat="51.8312721234" lon="-1.9297182094"><ele>140.49</ele><time>2015-12-16T11:04:34Z</time></trkpt><trkpt lat="51.8312711176" lon="-1.9297190476"><ele>140.49</ele><time>2015-12-16T11:04:59Z</time></trkpt><trkpt lat="51.8312706985" lon="-1.9297198020"><ele>141.45</ele><time>2015-12-16T11:05:20Z</time></trkpt><trkpt lat="51.8312665075" lon="-1.9297241606"><ele>141.45</ele><time>2015-12-16T11:05:43Z</time></trkpt><trkpt lat="51.8312727939" lon="-1.9297154434"><ele>141.45</ele><time>2015-12-16T11:06:10Z</time></trkpt><trkpt lat="51.8312763982" lon="-1.9297142699"><ele>140.97</ele><time>2015-12-16T11:06:37Z</time></trkpt><trkpt lat="51.8312743027" lon="-1.9297170360"><ele>141.45</ele><time>2015-12-16T11:06:57Z</time></trkpt><trkpt lat="51.8312725425" lon="-1.9297194667"><ele>140.97</ele><time>2015-12-16T11:07:19Z</time></trkpt><trkpt lat="51.8312720396" lon="-1.9297200534"><ele>141.45</ele><time>2015-12-16T11:07:44Z</time></trkpt><trkpt lat="51.8312691059" lon="-1.9297244959"><ele>141.45</ele><time>2015-12-16T11:08:12Z</time></trkpt><trkpt lat="51.8312556949" lon="-1.9297337998"><ele>140.97</ele><time>2015-12-16T11:08:35Z</time></trkpt><trkpt lat="51.8312617298" lon="-1.9297254179"><ele>141.45</ele><time>2015-12-16T11:08:54Z</time></trkpt><trkpt lat="51.8312608078" lon="-1.9297182094"><ele>141.45</ele><time>2015-12-16T11:09:22Z</time></trkpt><trkpt lat="51.8312603049" lon="-1.9297198020"><ele>141.93</ele><time>2015-12-16T11:09:49Z</time></trkpt><trkpt lat="51.8312660046" lon="-1.9297130127"><ele>140.49</ele><time>2015-12-16T11:10:15Z</time></trkpt><trkpt lat="51.8312662560" lon="-1.9297112525"><ele>144.34</ele><time>2015-12-16T11:10:19Z</time></trkpt><trkpt lat="51.8312680162" lon="-1.9297045469"><ele>141.93</ele><time>2015-12-16T11:10:34Z</time></trkpt><trkpt lat="51.8312674295" lon="-1.9296978414"><ele>140.97</ele><time>2015-12-16T11:11:02Z</time></trkpt><trkpt lat="51.8312706146" lon="-1.9296938181"><ele>141.45</ele><time>2015-12-16T11:11:27Z</time></trkpt><trkpt lat="51.8312732968" lon="-1.9296969194"><ele>141.45</ele><time>2015-12-16T11:11:45Z</time></trkpt><trkpt lat="51.8312739674" lon="-1.9296973385"><ele>142.89</ele><time>2015-12-16T11:11:47Z</time></trkpt><trkpt lat="51.8312753923" lon="-1.9296966679"><ele>141.45</ele><time>2015-12-16T11:12:10Z</time></trkpt><trkpt lat="51.8312743027" lon="-1.9296888728"><ele>141.45</ele><time>2015-12-16T11:12:37Z</time></trkpt><trkpt lat="51.8312713690" lon="-1.9296806585"><ele>141.93</ele><time>2015-12-16T11:13:05Z</time></trkpt><trkpt lat="51.8312724587" lon="-1.9296769705"><ele>143.85</ele><time>2015-12-16T11:13:13Z</time></trkpt><trkpt lat="51.8312755600" lon="-1.9296690077"><ele>140.97</ele><time>2015-12-16T11:13:38Z</time></trkpt><trkpt lat="51.8312832713" lon="-1.9296515733"><ele>140.97</ele><time>2015-12-16T11:14:01Z</time></trkpt><trkpt lat="51.8312789965" lon="-1.9296578597"><ele>141.45</ele><time>2015-12-16T11:14:25Z</time></trkpt><trkpt lat="51.8312693574" lon="-1.9296628051"><ele>141.93</ele><time>2015-12-16T11:14:53Z</time></trkpt><trkpt lat="51.8312696088" lon="-1.9296619669"><ele>142.41</ele><time>2015-12-16T11:15:23Z</time></trkpt><trkpt lat="51.8312724587" lon="-1.9296550099"><ele>141.45</ele><time>2015-12-16T11:15:57Z</time></trkpt><trkpt lat="51.8312711176" lon="-1.9296566024"><ele>141.45</ele><time>2015-12-16T11:16:24Z</time></trkpt><trkpt lat="51.8312721234" lon="-1.9296576083"><ele>141.45</ele><time>2015-12-16T11:16:54Z</time></trkpt><trkpt lat="51.8312724587" lon="-1.9296637271"><ele>141.45</ele><time>2015-12-16T11:17:21Z</time></trkpt><trkpt lat="51.8312724587" lon="-1.9296649843"><ele>141.45</ele><time>2015-12-16T11:17:49Z</time></trkpt><trkpt lat="51.8312717043" lon="-1.9296632241"><ele>141.45</ele><time>2015-12-16T11:18:06Z</time></trkpt><trkpt lat="51.8312758114" lon="-1.9296748750"><ele>141.93</ele><time>2015-12-16T11:18:28Z</time></trkpt><trkpt lat="51.8312736321" lon="-1.9296881184"><ele>141.93</ele><time>2015-12-16T11:18:50Z</time></trkpt><trkpt lat="51.8312831037" lon="-1.9297216460"><ele>140.97</ele><time>2015-12-16T11:19:10Z</time></trkpt><trkpt lat="51.8312880490" lon="-1.9297333807"><ele>140.97</ele><time>2015-12-16T11:19:23Z</time></trkpt><trkpt lat="51.8312907312" lon="-1.9297399186"><ele>141.93</ele><time>2015-12-16T11:19:47Z</time></trkpt><trkpt lat="51.8312904797" lon="-1.9297405053"><ele>141.93</ele><time>2015-12-16T11:20:13Z</time></trkpt><trkpt lat="51.8312893901" lon="-1.9297394995"><ele>141.93</ele><time>2015-12-16T11:20:40Z</time></trkpt><trkpt lat="51.8312945869" lon="-1.9297283515"><ele>141.93</ele><time>2015-12-16T11:20:56Z</time></trkpt><trkpt lat="51.8312984426" lon="-1.9297125936"><ele>141.93</ele><time>2015-12-16T11:21:23Z</time></trkpt><trkpt lat="51.8312950898" lon="-1.9297103304"><ele>141.93</ele><time>2015-12-16T11:21:54Z</time></trkpt><trkpt lat="51.8312983587" lon="-1.9297068100"><ele>141.93</ele><time>2015-12-16T11:22:16Z</time></trkpt><trkpt lat="51.8312929105" lon="-1.9296898786"><ele>141.93</ele><time>2015-12-16T11:22:43Z</time></trkpt><trkpt lat="51.8312908150" lon="-1.9296878669"><ele>141.93</ele><time>2015-12-16T11:23:04Z</time></trkpt><trkpt lat="51.8312894739" lon="-1.9296928961"><ele>141.45</ele><time>2015-12-16T11:23:25Z</time></trkpt><trkpt lat="51.8312898930" lon="-1.9296999369"><ele>141.45</ele><time>2015-12-16T11:23:49Z</time></trkpt><trkpt lat="51.8312857021" lon="-1.9296950754"><ele>142.41</ele><time>2015-12-16T11:24:15Z</time></trkpt><trkpt lat="51.8312800862" lon="-1.9297014456"><ele>142.41</ele><time>2015-12-16T11:24:41Z</time></trkpt><trkpt lat="51.8312778231" lon="-1.9296949077"><ele>141.93</ele><time>2015-12-16T11:25:06Z</time></trkpt><trkpt lat="51.8312810082" lon="-1.9297087379"><ele>146.74</ele><time>2015-12-16T11:25:19Z</time></trkpt><trkpt lat="51.8312811758" lon="-1.9297152758"><ele>142.41</ele><time>2015-12-16T11:25:20Z</time></trkpt><trkpt lat="51.8312889710" lon="-1.9297146052"><ele>142.41</ele><time>2015-12-16T11:25:36Z</time></trkpt><trkpt lat="51.8312883005" lon="-1.9297158625"><ele>141.93</ele><time>2015-12-16T11:26:00Z</time></trkpt><trkpt lat="51.8312857021" lon="-1.9297090732"><ele>141.93</ele><time>2015-12-16T11:26:17Z</time></trkpt><trkpt lat="51.8312836904" lon="-1.9297136832"><ele>141.93</ele><time>2015-12-16T11:26:39Z</time></trkpt><trkpt lat="51.8312825169" lon="-1.9297130127"><ele>141.93</ele><time>2015-12-16T11:26:59Z</time></trkpt><trkpt lat="51.8313035555" lon="-1.9297060557"><ele>141.93</ele><time>2015-12-16T11:27:17Z</time></trkpt><trkpt lat="51.8313011248" lon="-1.9296937343"><ele>142.41</ele><time>2015-12-16T11:27:42Z</time></trkpt><trkpt lat="51.8313012086" lon="-1.9296956621"><ele>142.41</ele><time>2015-12-16T11:28:03Z</time></trkpt><trkpt lat="51.8313540146" lon="-1.9296619669"><ele>141.93</ele><time>2015-12-16T11:28:23Z</time></trkpt><trkpt lat="51.8314504903" lon="-1.9296022877"><ele>141.45</ele><time>2015-12-16T11:28:37Z</time></trkpt><trkpt lat="51.8315926474" lon="-1.9295579474"><ele>140.97</ele><time>2015-12-16T11:28:53Z</time></trkpt><trkpt lat="51.8317635544" lon="-1.9295709394"><ele>141.45</ele><time>2015-12-16T11:29:11Z</time></trkpt><trkpt lat="51.8319302704" lon="-1.9295785669"><ele>141.93</ele><time>2015-12-16T11:29:29Z</time></trkpt><trkpt lat="51.8321154267" lon="-1.9295790698"><ele>142.41</ele><time>2015-12-16T11:29:47Z</time></trkpt><trkpt lat="51.8322366290" lon="-1.9295906369"><ele>141.93</ele><time>2015-12-16T11:30:01Z</time></trkpt><trkpt lat="51.8324005790" lon="-1.9296011142"><ele>142.41</ele><time>2015-12-16T11:30:16Z</time></trkpt><trkpt lat="51.8325518724" lon="-1.9296187162"><ele>141.93</ele><time>2015-12-16T11:30:32Z</time></trkpt><trkpt lat="51.8327560555" lon="-1.9296520762"><ele>141.45</ele><time>2015-12-16T11:30:51Z</time></trkpt><trkpt lat="51.8329382781" lon="-1.9297043793"><ele>139.05</ele><time>2015-12-16T11:31:10Z</time></trkpt><trkpt lat="51.8330776691" lon="-1.9297710992"><ele>137.61</ele><time>2015-12-16T11:31:26Z</time></trkpt><trkpt lat="51.8331647571" lon="-1.9298208039"><ele>137.13</ele><time>2015-12-16T11:31:45Z</time></trkpt><trkpt lat="51.8333186489" lon="-1.9298436865"><ele>135.68</ele><time>2015-12-16T11:32:01Z</time></trkpt><trkpt lat="51.8334572855" lon="-1.9298781361"><ele>135.20</ele><time>2015-12-16T11:32:15Z</time></trkpt><trkpt lat="51.8335442059" lon="-1.9298883621"><ele>135.20</ele><time>2015-12-16T11:32:30Z</time></trkpt><trkpt lat="51.8335545156" lon="-1.9298955705"><ele>135.20</ele><time>2015-12-16T11:32:31Z</time></trkpt><trkpt lat="51.8336418550" lon="-1.9299215544"><ele>135.68</ele><time>2015-12-16T11:32:40Z</time></trkpt><trkpt lat="51.8337422702" lon="-1.9298799802"><ele>136.16</ele><time>2015-12-16T11:32:55Z</time></trkpt><trkpt lat="51.8338511512" lon="-1.9298373163"><ele>136.16</ele><time>2015-12-16T11:33:10Z</time></trkpt><trkpt lat="51.8339758739" lon="-1.9297674950"><ele>135.68</ele><time>2015-12-16T11:33:24Z</time></trkpt><trkpt lat="51.8341238983" lon="-1.9297396671"><ele>135.68</ele><time>2015-12-16T11:33:39Z</time></trkpt><trkpt lat="51.8341772910" lon="-1.9296882022"><ele>136.16</ele><time>2015-12-16T11:33:53Z</time></trkpt><trkpt lat="51.8341855053" lon="-1.9296866935"><ele>136.16</ele><time>2015-12-16T11:33:54Z</time></trkpt><trkpt lat="51.8343253154" lon="-1.9297467079"><ele>137.13</ele><time>2015-12-16T11:34:09Z</time></trkpt><trkpt lat="51.8343455996" lon="-1.9297614601"><ele>136.64</ele><time>2015-12-16T11:34:11Z</time></trkpt><trkpt lat="51.8344667181" lon="-1.9298298564"><ele>137.61</ele><time>2015-12-16T11:34:26Z</time></trkpt><trkpt lat="51.8346284050" lon="-1.9299059641"><ele>137.13</ele><time>2015-12-16T11:34:43Z</time></trkpt><trkpt lat="51.8348226137" lon="-1.9300108217"><ele>137.13</ele><time>2015-12-16T11:35:03Z</time></trkpt><trkpt lat="51.8349576462" lon="-1.9300883543"><ele>138.09</ele><time>2015-12-16T11:35:17Z</time></trkpt><trkpt lat="51.8350731488" lon="-1.9301502965"><ele>139.53</ele><time>2015-12-16T11:35:30Z</time></trkpt><trkpt lat="51.8351960275" lon="-1.9302725885"><ele>142.89</ele><time>2015-12-16T11:35:48Z</time></trkpt><trkpt lat="51.8351961952" lon="-1.9302924536"><ele>142.41</ele><time>2015-12-16T11:35:55Z</time></trkpt><trkpt lat="51.8352306448" lon="-1.9303487800"><ele>142.89</ele><time>2015-12-16T11:36:10Z</time></trkpt><trkpt lat="51.8352354225" lon="-1.9303786196"><ele>143.37</ele><time>2015-12-16T11:36:26Z</time></trkpt><trkpt lat="51.8352761585" lon="-1.9305469282"><ele>143.85</ele><time>2015-12-16T11:36:36Z</time></trkpt><trkpt lat="51.8352698721" lon="-1.9308491796"><ele>144.82</ele><time>2015-12-16T11:36:54Z</time></trkpt><trkpt lat="51.8352575507" lon="-1.9310736470"><ele>145.78</ele><time>2015-12-16T11:37:09Z</time></trkpt><trkpt lat="51.8352444749" lon="-1.9313172251"><ele>146.26</ele><time>2015-12-16T11:37:23Z</time></trkpt><trkpt lat="51.8352354225" lon="-1.9314406905"><ele>146.26</ele><time>2015-12-16T11:37:31Z</time></trkpt><trkpt lat="51.8352408707" lon="-1.9315344002"><ele>147.22</ele><time>2015-12-16T11:37:37Z</time></trkpt><trkpt lat="51.8352272082" lon="-1.9317454565"><ele>146.74</ele><time>2015-12-16T11:37:49Z</time></trkpt><trkpt lat="51.8352152221" lon="-1.9319585245"><ele>147.22</ele><time>2015-12-16T11:38:02Z</time></trkpt><trkpt lat="51.8352274597" lon="-1.9321943913"><ele>147.70</ele><time>2015-12-16T11:38:17Z</time></trkpt><trkpt lat="51.8352731410" lon="-1.9324257318"><ele>148.66</ele><time>2015-12-16T11:38:32Z</time></trkpt><trkpt lat="51.8353302218" lon="-1.9326535519"><ele>148.66</ele><time>2015-12-16T11:38:47Z</time></trkpt><trkpt lat="51.8353964388" lon="-1.9328880776"><ele>148.66</ele><time>2015-12-16T11:39:03Z</time></trkpt><trkpt lat="51.8354064133" lon="-1.9329195097"><ele>147.70</ele><time>2015-12-16T11:39:06Z</time></trkpt><trkpt lat="51.8354141247" lon="-1.9329633471"><ele>147.70</ele><time>2015-12-16T11:39:09Z</time></trkpt><trkpt lat="51.8354772404" lon="-1.9332343340"><ele>147.22</ele><time>2015-12-16T11:39:27Z</time></trkpt><trkpt lat="51.8355261069" lon="-1.9335216656"><ele>147.70</ele><time>2015-12-16T11:39:47Z</time></trkpt><trkpt lat="51.8355439603" lon="-1.9338081591"><ele>147.70</ele><time>2015-12-16T11:40:03Z</time></trkpt><trkpt lat="51.8355604727" lon="-1.9340613764"><ele>149.14</ele><time>2015-12-16T11:40:18Z</time></trkpt><trkpt lat="51.8355727103" lon="-1.9342813175"><ele>150.10</ele><time>2015-12-16T11:40:33Z</time></trkpt><trkpt lat="51.8355820142" lon="-1.9345296733"><ele>151.54</ele><time>2015-12-16T11:40:51Z</time></trkpt><trkpt lat="51.8355841935" lon="-1.9347782806"><ele>151.06</ele><time>2015-12-16T11:41:06Z</time></trkpt><trkpt lat="51.8356085010" lon="-1.9350013230"><ele>152.99</ele><time>2015-12-16T11:41:22Z</time></trkpt><trkpt lat="51.8356277794" lon="-1.9352620002"><ele>153.47</ele><time>2015-12-16T11:41:39Z</time></trkpt><trkpt lat="51.8356442917" lon="-1.9355375972"><ele>155.87</ele><time>2015-12-16T11:41:57Z</time></trkpt><trkpt lat="51.8356608041" lon="-1.9358081650"><ele>157.79</ele><time>2015-12-16T11:42:15Z</time></trkpt><trkpt lat="51.8356817588" lon="-1.9360238314"><ele>158.27</ele><time>2015-12-16T11:42:30Z</time></trkpt><trkpt lat="51.8356904760" lon="-1.9362463709"><ele>160.68</ele><time>2015-12-16T11:42:46Z</time></trkpt><trkpt lat="51.8357009534" lon="-1.9364975765"><ele>161.16</ele><time>2015-12-16T11:43:02Z</time></trkpt><trkpt lat="51.8356939126" lon="-1.9367218763"><ele>163.56</ele><time>2015-12-16T11:43:17Z</time></trkpt><trkpt lat="51.8356996123" lon="-1.9367849920"><ele>163.56</ele><time>2015-12-16T11:43:22Z</time></trkpt><trkpt lat="51.8357016239" lon="-1.9370727427"><ele>165.48</ele><time>2015-12-16T11:43:42Z</time></trkpt><trkpt lat="51.8357006181" lon="-1.9373906683"><ele>166.93</ele><time>2015-12-16T11:44:02Z</time></trkpt><trkpt lat="51.8357129395" lon="-1.9376114476"><ele>168.85</ele><time>2015-12-16T11:44:17Z</time></trkpt><trkpt lat="51.8357098382" lon="-1.9378373399"><ele>169.33</ele><time>2015-12-16T11:44:32Z</time></trkpt><trkpt lat="51.8357235845" lon="-1.9380651601"><ele>170.29</ele><time>2015-12-16T11:44:50Z</time></trkpt><trkpt lat="51.8357124366" lon="-1.9383011106"><ele>170.29</ele><time>2015-12-16T11:45:04Z</time></trkpt><trkpt lat="51.8357183039" lon="-1.9383422658"><ele>170.29</ele><time>2015-12-16T11:45:07Z</time></trkpt><trkpt lat="51.8357254285" lon="-1.9387049507"><ele>170.77</ele><time>2015-12-16T11:45:30Z</time></trkpt><trkpt lat="51.8357654940" lon="-1.9390221220"><ele>171.73</ele><time>2015-12-16T11:45:51Z</time></trkpt><trkpt lat="51.8358105049" lon="-1.9393206015"><ele>173.17</ele><time>2015-12-16T11:46:13Z</time></trkpt><trkpt lat="51.8357783183" lon="-1.9393610861"><ele>173.66</ele><time>2015-12-16T11:46:33Z</time></trkpt><trkpt lat="51.8358504027" lon="-1.9395091105"><ele>174.14</ele><time>2015-12-16T11:46:54Z</time></trkpt><trkpt lat="51.8358844332" lon="-1.9397729728"><ele>175.10</ele><time>2015-12-16T11:47:11Z</time></trkpt><trkpt lat="51.8359304499" lon="-1.9400273636"><ele>176.06</ele><time>2015-12-16T11:47:29Z</time></trkpt><trkpt lat="51.8359798193" lon="-1.9402722828"><ele>177.50</ele><time>2015-12-16T11:47:45Z</time></trkpt><trkpt lat="51.8360132631" lon="-1.9404680841"><ele>178.46</ele><time>2015-12-16T11:48:00Z</time></trkpt><trkpt lat="51.8360718526" lon="-1.9407232292"><ele>180.38</ele><time>2015-12-16T11:48:18Z</time></trkpt><trkpt lat="51.8361292686" lon="-1.9408852514"><ele>180.87</ele><time>2015-12-16T11:48:32Z</time></trkpt><trkpt lat="51.8362023588" lon="-1.9411331881"><ele>182.31</ele><time>2015-12-16T11:48:50Z</time></trkpt><trkpt lat="51.8362797238" lon="-1.9413589127"><ele>183.27</ele><time>2015-12-16T11:49:07Z</time></trkpt><trkpt lat="51.8363648839" lon="-1.9416350964"><ele>184.71</ele><time>2015-12-16T11:49:29Z</time></trkpt><trkpt lat="51.8364389800" lon="-1.9418854639"><ele>185.19</ele><time>2015-12-16T11:49:47Z</time></trkpt><trkpt lat="51.8364886008" lon="-1.9420576282"><ele>185.67</ele><time>2015-12-16T11:50:03Z</time></trkpt><trkpt lat="51.8365507945" lon="-1.9421182293"><ele>185.67</ele><time>2015-12-16T11:50:22Z</time></trkpt><trkpt lat="51.8366103899" lon="-1.9423433673"><ele>186.63</ele><time>2015-12-16T11:50:37Z</time></trkpt><trkpt lat="51.8366901856" lon="-1.9425628893"><ele>186.15</ele><time>2015-12-16T11:50:54Z</time></trkpt><trkpt lat="51.8368020002" lon="-1.9427404180"><ele>185.19</ele><time>2015-12-16T11:51:14Z</time></trkpt><trkpt lat="51.8369271420" lon="-1.9429489598"><ele>183.27</ele><time>2015-12-16T11:51:36Z</time></trkpt><trkpt lat="51.8370319158" lon="-1.9431514665"><ele>181.83</ele><time>2015-12-16T11:51:56Z</time></trkpt><trkpt lat="51.8371562194" lon="-1.9432791229"><ele>179.42</ele><time>2015-12-16T11:52:16Z</time></trkpt><trkpt lat="51.8372329138" lon="-1.9434511196"><ele>177.50</ele><time>2015-12-16T11:52:35Z</time></trkpt><trkpt lat="51.8372775894" lon="-1.9436967932"><ele>174.62</ele><time>2015-12-16T11:52:51Z</time></trkpt><trkpt lat="51.8372618314" lon="-1.9439055026"><ele>172.69</ele><time>2015-12-16T11:53:09Z</time></trkpt><trkpt lat="51.8372081034" lon="-1.9440905750"><ele>171.73</ele><time>2015-12-16T11:53:26Z</time></trkpt><trkpt lat="51.8371412158" lon="-1.9443126116"><ele>169.81</ele><time>2015-12-16T11:53:46Z</time></trkpt><trkpt lat="51.8370630965" lon="-1.9445467182"><ele>169.33</ele><time>2015-12-16T11:54:07Z</time></trkpt><trkpt lat="51.8369719852" lon="-1.9448011927"><ele>166.93</ele><time>2015-12-16T11:54:29Z</time></trkpt><trkpt lat="51.8369313329" lon="-1.9450190384"><ele>166.45</ele><time>2015-12-16T11:54:47Z</time></trkpt><trkpt lat="51.8368584104" lon="-1.9452505466"><ele>165.48</ele><time>2015-12-16T11:55:05Z</time></trkpt><trkpt lat="51.8367720768" lon="-1.9454958010"><ele>164.52</ele><time>2015-12-16T11:55:26Z</time></trkpt><trkpt lat="51.8366949633" lon="-1.9457874075"><ele>162.60</ele><time>2015-12-16T11:55:47Z</time></trkpt><trkpt lat="51.8366243877" lon="-1.9460403733"><ele>161.16</ele><time>2015-12-16T11:56:09Z</time></trkpt><trkpt lat="51.8365860824" lon="-1.9461472426"><ele>159.72</ele><time>2015-12-16T11:56:27Z</time></trkpt><trkpt lat="51.8365069572" lon="-1.9464226719"><ele>158.75</ele><time>2015-12-16T11:56:45Z</time></trkpt><trkpt lat="51.8364740163" lon="-1.9466100913"><ele>158.27</ele><time>2015-12-16T11:57:05Z</time></trkpt><trkpt lat="51.8364342023" lon="-1.9468255900"><ele>156.35</ele><time>2015-12-16T11:57:24Z</time></trkpt><trkpt lat="51.8363887724" lon="-1.9471410010"><ele>154.91</ele><time>2015-12-16T11:57:44Z</time></trkpt><trkpt lat="51.8363690749" lon="-1.9473609421"><ele>154.91</ele><time>2015-12-16T11:58:04Z</time></trkpt><trkpt lat="51.8363460246" lon="-1.9476009998"><ele>153.95</ele><time>2015-12-16T11:58:22Z</time></trkpt><trkpt lat="51.8363539875" lon="-1.9476481900"><ele>153.95</ele><time>2015-12-16T11:58:41Z</time></trkpt><trkpt lat="51.8363445159" lon="-1.9478330947"><ele>153.47</ele><time>2015-12-16T11:58:56Z</time></trkpt><trkpt lat="51.8363563344" lon="-1.9481736515"><ele>152.99</ele><time>2015-12-16T11:59:13Z</time></trkpt><trkpt lat="51.8363487069" lon="-1.9482250325"><ele>152.99</ele><time>2015-12-16T11:59:17Z</time></trkpt><trkpt lat="51.8363490421" lon="-1.9483799301"><ele>153.47</ele><time>2015-12-16T11:59:27Z</time></trkpt><trkpt lat="51.8363735173" lon="-1.9486354105"><ele>152.51</ele><time>2015-12-16T11:59:45Z</time></trkpt><trkpt lat="51.8363805581" lon="-1.9488576986"><ele>151.06</ele><time>2015-12-16T12:00:01Z</time></trkpt><trkpt lat="51.8364025187" lon="-1.9489825889"><ele>151.06</ele><time>2015-12-16T12:00:14Z</time></trkpt><trkpt lat="51.8364418298" lon="-1.9491310325"><ele>150.58</ele><time>2015-12-16T12:00:28Z</time></trkpt><trkpt lat="51.8365173507" lon="-1.9492728543"><ele>150.10</ele><time>2015-12-16T12:00:43Z</time></trkpt><trkpt lat="51.8366531376" lon="-1.9494303502"><ele>149.14</ele><time>2015-12-16T12:01:01Z</time></trkpt><trkpt lat="51.8367740046" lon="-1.9495560788"><ele>148.18</ele><time>2015-12-16T12:01:17Z</time></trkpt><trkpt lat="51.8369035888" lon="-1.9496522192"><ele>146.74</ele><time>2015-12-16T12:01:33Z</time></trkpt><trkpt lat="51.8369165808" lon="-1.9497332722"><ele>146.74</ele><time>2015-12-16T12:01:45Z</time></trkpt><trkpt lat="51.8369461689" lon="-1.9497787021"><ele>145.78</ele><time>2015-12-16T12:02:04Z</time></trkpt><trkpt lat="51.8369398825" lon="-1.9499653671"><ele>146.26</ele><time>2015-12-16T12:02:17Z</time></trkpt><trkpt lat="51.8369377032" lon="-1.9499829691"><ele>145.78</ele><time>2015-12-16T12:02:18Z</time></trkpt><trkpt lat="51.8369005714" lon="-1.9502320793"><ele>146.74</ele><time>2015-12-16T12:02:33Z</time></trkpt><trkpt lat="51.8369015772" lon="-1.9503178261"><ele>147.22</ele><time>2015-12-16T12:02:38Z</time></trkpt><trkpt lat="51.8368885852" lon="-1.9504745677"><ele>147.22</ele><time>2015-12-16T12:02:49Z</time></trkpt><trkpt lat="51.8368693907" lon="-1.9506884739"><ele>147.22</ele><time>2015-12-16T12:03:05Z</time></trkpt><trkpt lat="51.8368405569" lon="-1.9509001169"><ele>147.22</ele><time>2015-12-16T12:03:19Z</time></trkpt><trkpt lat="51.8368292414" lon="-1.9509989396"><ele>147.22</ele><time>2015-12-16T12:03:26Z</time></trkpt><trkpt lat="51.8368052691" lon="-1.9511813298"><ele>147.22</ele><time>2015-12-16T12:03:39Z</time></trkpt><trkpt lat="51.8367940374" lon="-1.9512847625"><ele>147.22</ele><time>2015-12-16T12:03:46Z</time></trkpt><trkpt lat="51.8367918581" lon="-1.9513329584"><ele>147.22</ele><time>2015-12-16T12:03:49Z</time></trkpt><trkpt lat="51.8367485236" lon="-1.9515189528"><ele>147.22</ele><time>2015-12-16T12:04:03Z</time></trkpt><trkpt lat="51.8367378786" lon="-1.9515619520"><ele>147.70</ele><time>2015-12-16T12:04:06Z</time></trkpt><trkpt lat="51.8367201090" lon="-1.9517286681"><ele>147.22</ele><time>2015-12-16T12:04:19Z</time></trkpt><trkpt lat="51.8367169239" lon="-1.9517624471"><ele>147.22</ele><time>2015-12-16T12:04:21Z</time></trkpt><trkpt lat="51.8367025070" lon="-1.9519425742"><ele>147.22</ele><time>2015-12-16T12:04:37Z</time></trkpt><trkpt lat="51.8367015850" lon="-1.9521239586"><ele>147.70</ele><time>2015-12-16T12:04:52Z</time></trkpt><trkpt lat="51.8366904370" lon="-1.9524687901"><ele>148.18</ele><time>2015-12-16T12:05:09Z</time></trkpt><trkpt lat="51.8367000762" lon="-1.9526741467"><ele>148.66</ele><time>2015-12-16T12:05:20Z</time></trkpt><trkpt lat="51.8367797881" lon="-1.9529582933"><ele>147.22</ele><time>2015-12-16T12:05:36Z</time></trkpt><trkpt lat="51.8368666247" lon="-1.9531699363"><ele>144.82</ele><time>2015-12-16T12:05:51Z</time></trkpt><trkpt lat="51.8369535450" lon="-1.9534113351"><ele>143.85</ele><time>2015-12-16T12:06:05Z</time></trkpt><trkpt lat="51.8370671198" lon="-1.9537228905"><ele>142.89</ele><time>2015-12-16T12:06:24Z</time></trkpt><trkpt lat="51.8370407168" lon="-1.9539700728"><ele>142.89</ele><time>2015-12-16T12:06:40Z</time></trkpt><trkpt lat="51.8370123859" lon="-1.9541569054"><ele>141.93</ele><time>2015-12-16T12:06:53Z</time></trkpt><trkpt lat="51.8369790260" lon="-1.9543392118"><ele>141.93</ele><time>2015-12-16T12:07:07Z</time></trkpt><trkpt lat="51.8369675428" lon="-1.9545455743"><ele>141.45</ele><time>2015-12-16T12:07:23Z</time></trkpt><trkpt lat="51.8370146491" lon="-1.9546050020"><ele>140.49</ele><time>2015-12-16T12:07:38Z</time></trkpt><trkpt lat="51.8371358514" lon="-1.9545993023"><ele>140.97</ele><time>2015-12-16T12:07:49Z</time></trkpt><trkpt lat="51.8371480051" lon="-1.9545892440"><ele>140.49</ele><time>2015-12-16T12:07:57Z</time></trkpt></trkseg></trk></gpx>